»·PEaware :: N4363Q KIFP-KMYF

N4363Q :: KIFP-KMYF

FLIGHT INFORMATION

Flight Status: Arrived
Operator: Privately registered:
United States
More flights under this callsign
Pilot: Abraham T. (20517)
Aircraft: PIPER PA-46-310/350P MALIBU MIRAGE
(PA46)
More flights by this aircraft type
Origin: KIFP Laughlin/Bullhead Intl
United States
Destination: KMYF Montgomery
United States
More flights between these airports :: More routes between these airports
Route: EED TRM V514 MZB
File this flight plan on PilotEdge
Remarks:
Altitude:
(Current/Filed)
16,000ft
Speed:
(Current/Filed)
185kts
Departed: 17-Sep-20 09:25 PM
Arrived: 17-Sep-20 10:33 PM
Distance/Time
Traveled:
190nm/1:07
Distance/Time
To Go:
Arrived

Flight Plot

Page will automatically refresh every two minutes.

Flight plan parsing failed; only flown route is shown


Map Options




Map Legend


Flown Route
Filed Route
Departure Airport
Arrival Airport
Navaid (VOR, NDB)
Fix

Horizontal Profiles

Position Reports

Time Latitude Longitude Heading Altitude Ground
Speed
17-Sep-20 21:14 35.164682 -114.556608 248 699ft 0kts
17-Sep-20 21:15 35.164682 -114.556609 248 699ft 0kts
17-Sep-20 21:16 35.164681 -114.556610 248 699ft 0kts
17-Sep-20 21:17 35.164681 -114.556611 248 699ft 0kts
17-Sep-20 21:18 35.164681 -114.556611 248 699ft 0kts
17-Sep-20 21:19 35.164681 -114.556612 248 699ft 0kts
17-Sep-20 21:20 35.164703 -114.557522 277 699ft 10kts
17-Sep-20 21:21 35.167505 -114.559362 303 699ft 11kts
17-Sep-20 21:22 35.167568 -114.559589 267 699ft 0kts
17-Sep-20 21:23 35.167568 -114.559591 267 699ft 0kts
17-Sep-20 21:24 35.158027 -114.559142 170 717ft 81kts
17-Sep-20 21:25 35.139905 -114.540960 138 976ft 105kts
17-Sep-20 21:26 35.121525 -114.530606 161 1428ft 105kts
17-Sep-20 21:27 35.088747 -114.520899 171 2268ft 132kts
17-Sep-20 21:28 35.052413 -114.512039 170 3257ft 135kts
17-Sep-20 21:29 35.015956 -114.501987 170 4261ft 133kts
17-Sep-20 21:30 34.978323 -114.493161 170 5278ft 140kts
17-Sep-20 21:31 34.939322 -114.484990 171 6280ft 142kts
17-Sep-20 21:32 34.900248 -114.480236 178 7276ft 141kts
17-Sep-20 21:34 34.860348 -114.478616 176 8208ft 145kts
17-Sep-20 21:35 34.819899 -114.476657 176 9208ft 146kts
17-Sep-20 21:36 34.778957 -114.474659 175 10208ft 148kts
17-Sep-20 21:37 34.746287 -114.503660 229 11213ft 157kts
17-Sep-20 21:38 34.718584 -114.545927 230 12215ft 161kts
17-Sep-20 21:39 34.690095 -114.589071 231 13221ft 164kts
17-Sep-20 21:40 34.661184 -114.632784 232 14226ft 166kts
17-Sep-20 21:41 34.632053 -114.676739 232 15227ft 167kts
17-Sep-20 21:42 34.602303 -114.721617 232 15989ft 181kts
17-Sep-20 21:43 34.567795 -114.773717 232 16003ft 210kts
17-Sep-20 21:44 34.530212 -114.830239 232 16000ft 219kts
17-Sep-20 21:45 34.491556 -114.888261 232 16000ft 221kts
17-Sep-20 21:46 34.452797 -114.946343 232 16000ft 222kts
17-Sep-20 21:47 34.413856 -115.004604 232 16003ft 222kts
17-Sep-20 21:48 34.374928 -115.062751 232 16005ft 222kts
17-Sep-20 21:49 34.336260 -115.120402 232 16092ft 220kts
17-Sep-20 21:50 34.297432 -115.178221 232 16097ft 221kts
17-Sep-20 21:50 34.265010 -115.226420 232 16107ft 222kts
17-Sep-20 21:51 34.225059 -115.286244 232 16093ft 232kts
17-Sep-20 21:53 34.178186 -115.355189 233 16136ft 223kts
17-Sep-20 21:53 34.145548 -115.403444 233 16140ft 223kts
17-Sep-20 21:54 34.106336 -115.461366 233 16141ft 222kts
17-Sep-20 21:55 34.066996 -115.519380 233 16132ft 222kts
17-Sep-20 21:56 34.027809 -115.577068 233 16148ft 222kts
17-Sep-20 21:57 33.988793 -115.634413 233 16154ft 220kts
17-Sep-20 21:58 33.949767 -115.691687 233 16150ft 220kts
17-Sep-20 21:59 33.910666 -115.748989 232 16085ft 223kts
17-Sep-20 22:00 33.871232 -115.806657 232 16094ft 220kts
17-Sep-20 22:01 33.832450 -115.863285 231 16096ft 218kts
17-Sep-20 22:02 33.794137 -115.919150 231 16080ft 213kts
17-Sep-20 22:03 33.756474 -115.973999 231 16060ft 212kts
17-Sep-20 22:04 33.718108 -116.029815 232 16022ft 218kts
17-Sep-20 22:05 33.679594 -116.085662 232 16010ft 215kts
17-Sep-20 22:06 33.648286 -116.131046 232 16004ft 215kts
17-Sep-20 22:07 33.603948 -116.181461 218 16002ft 224kts
17-Sep-20 22:08 33.553422 -116.225861 218 15997ft 227kts
17-Sep-20 22:09 33.502208 -116.270765 218 16004ft 227kts
17-Sep-20 22:10 33.450830 -116.315781 218 15788ft 235kts
17-Sep-20 22:11 33.396920 -116.362974 217 15276ft 242kts
17-Sep-20 22:12 33.342043 -116.410846 216 14778ft 245kts
17-Sep-20 22:13 33.306844 -116.441510 216 14460ft 245kts
17-Sep-20 22:14 33.251761 -116.489434 215 13960ft 243kts
17-Sep-20 22:15 33.197442 -116.536623 214 13460ft 240kts
17-Sep-20 22:16 33.143729 -116.583214 214 13013ft 234kts
17-Sep-20 22:17 33.092583 -116.628291 217 12527ft 222kts
17-Sep-20 22:18 33.043934 -116.670789 214 11847ft 212kts
17-Sep-20 22:19 32.992252 -116.700103 192 11180ft 205kts
17-Sep-20 22:20 32.936011 -116.716150 192 10246ft 209kts
17-Sep-20 22:21 32.879526 -116.731366 192 9246ft 207kts
17-Sep-20 22:22 32.824339 -116.746569 192 7741ft 198kts
17-Sep-20 22:23 32.780500 -116.781311 221 6250ft 188kts
17-Sep-20 22:24 32.745005 -116.824047 222 5015ft 167kts
17-Sep-20 22:25 32.727521 -116.865015 272 4963ft 141kts
17-Sep-20 22:26 32.733450 -116.913412 271 4429ft 149kts
17-Sep-20 22:27 32.744693 -116.962188 284 3661ft 159kts
17-Sep-20 22:28 32.763739 -117.009226 286 2704ft 154kts
17-Sep-20 22:29 32.778866 -117.047108 306 2178ft 108kts
17-Sep-20 22:30 32.792490 -117.082677 304 1376ft 118kts
17-Sep-20 22:31 32.807321 -117.116272 294 789ft 116kts
17-Sep-20 22:32 32.816812 -117.141227 294 431ft 24kts
17-Sep-20 22:33 32.817218 -117.145373 196 431ft 0kts
17-Sep-20 22:34 32.816058 -117.145095 114 431ft 0kts
17-Sep-20 22:35 32.814726 -117.142644 134 431ft 9kts
17-Sep-20 22:36 32.814511 -117.142381 135 431ft 0kts

Navigation Log

Ident Type
Flight plan parsing failed, navigation log unavailable